createdAt,value
2023-11-14T00:18:23.158Z,86.36
2023-11-14T00:28:26.327Z,85.28
2023-11-14T00:38:30.738Z,85.25
2023-11-14T00:48:33.693Z,85.05
2023-11-14T00:58:38.735Z,84.44
2023-11-14T01:08:41.824Z,84.33
2023-11-14T01:18:46.160Z,84.20
2023-11-14T01:28:49.567Z,84.42
2023-11-14T01:38:54.189Z,84.13
2023-11-14T01:49:00.293Z,84.66
2023-11-14T01:59:05.136Z,84.70
2023-11-14T02:09:09.007Z,84.81
2023-11-14T02:19:13.947Z,86.00
2023-11-14T02:29:22.215Z,86.07
2023-11-14T02:39:25.355Z,86.21
2023-11-14T02:49:46.695Z,85.99
2023-11-14T02:59:50.268Z,85.65
2023-11-14T03:09:54.860Z,86.48
2023-11-14T03:19:58.177Z,86.12
2023-11-14T03:30:02.900Z,86.64
2023-11-14T03:40:07.331Z,85.99
2023-11-14T03:50:12.316Z,85.38
2023-11-14T04:00:16.413Z,85.34
2023-11-14T04:10:22.328Z,84.70
2023-11-14T04:20:25.566Z,85.22
2023-11-14T04:30:30.025Z,86.07
2023-11-14T04:40:33.158Z,86.12
2023-11-14T04:50:38.645Z,85.59
2023-11-14T05:00:41.794Z,85.92
2023-11-14T05:10:47.563Z,86.17
2023-11-14T05:20:51.047Z,85.98
2023-11-14T05:30:55.408Z,86.65
2023-11-14T05:40:58.806Z,86.48
2023-11-14T05:51:03.732Z,87.00
2023-11-14T06:01:08.242Z,87.06
2023-11-14T06:11:15.933Z,87.24
2023-11-14T06:21:20.712Z,86.59
2023-11-14T06:31:27.433Z,87.44
2023-11-14T06:41:30.435Z,86.19
2023-11-14T06:51:34.966Z,85.71
2023-11-14T07:01:38.375Z,84.77
2023-11-14T07:11:42.880Z,84.20
2023-11-14T07:21:47.562Z,84.57
2023-11-14T07:31:52.715Z,84.43
2023-11-14T07:41:55.856Z,84.91
2023-11-14T07:52:00.291Z,85.59
2023-11-14T08:02:04.277Z,87.70
2023-11-14T08:12:09.377Z,89.08
2023-11-14T08:22:13.052Z,89.39
2023-11-14T08:32:18.012Z,89.69
2023-11-14T08:42:21.691Z,89.25
2023-11-14T08:52:26.069Z,89.63
2023-11-14T09:02:29.460Z,89.95
2023-11-14T09:12:34.370Z,90.22
2023-11-14T09:22:39.333Z,90.08
2023-11-14T09:32:44.223Z,89.96
2023-11-14T09:42:47.712Z,87.79
2023-11-14T09:52:53.786Z,88.54
2023-11-14T10:02:58.869Z,90.59
2023-11-14T10:13:04.808Z,91.17
2023-11-14T10:23:16.863Z,90.78
2023-11-14T10:33:41.609Z,90.69
2023-11-14T10:43:45.636Z,90.76
2023-11-14T10:53:52.822Z,91.47
2023-11-14T11:03:56.560Z,97.40
2023-11-14T11:14:02.385Z,98.96
2023-11-14T11:24:17.636Z,100.00
2023-11-14T11:34:32.722Z,99.85
2023-11-14T11:44:39.947Z,97.02
2023-11-14T11:54:46.305Z,92.62
2023-11-14T12:04:53.816Z,90.04
2023-11-14T12:14:58.345Z,87.80
2023-11-14T12:25:01.655Z,87.12
2023-11-14T12:35:07.251Z,85.24
2023-11-14T12:45:12.073Z,82.10
2023-11-14T12:55:16.540Z,80.73
2023-11-14T13:05:19.876Z,78.72
2023-11-14T13:15:25.532Z,79.50
2023-11-14T13:25:28.445Z,80.11
2023-11-14T13:35:32.734Z,80.49
2023-11-14T13:45:36.888Z,81.57
2023-11-14T13:55:41.652Z,81.89
2023-11-14T14:05:44.909Z,83.61
2023-11-14T14:15:49.545Z,84.47
2023-11-14T14:25:52.913Z,83.80
2023-11-14T14:35:57.407Z,84.16
2023-11-14T14:46:01.208Z,83.52
2023-11-14T14:56:07.376Z,83.17
2023-11-14T15:06:10.876Z,83.70
2023-11-14T15:16:17.195Z,87.22
2023-11-14T15:26:20.892Z,89.67
2023-11-14T15:36:28.369Z,90.75
2023-11-14T15:46:31.741Z,92.34
2023-11-14T15:56:36.727Z,95.31
2023-11-14T16:06:39.750Z,98.09
2023-11-14T16:16:44.351Z,100.00
2023-11-14T16:26:47.615Z,100.00
2023-11-14T16:36:52.777Z,100.00
2023-11-14T16:46:55.857Z,100.00
2023-11-14T16:57:00.440Z,100.00
2023-11-14T17:07:04.167Z,100.00
2023-11-14T17:17:08.668Z,100.00
2023-11-14T17:27:14.254Z,100.00
2023-11-14T17:37:18.766Z,100.00
2023-11-14T17:47:23.085Z,100.00
2023-11-14T17:57:29.901Z,100.00
2023-11-14T18:07:33.039Z,100.00
2023-11-14T18:17:37.872Z,100.00
2023-11-14T18:27:40.928Z,100.00
2023-11-14T18:37:45.625Z,100.00
2023-11-14T18:47:49.000Z,100.00
2023-11-14T18:57:53.930Z,100.00
2023-11-14T19:07:57.267Z,100.00
2023-11-14T19:18:01.943Z,100.00
2023-11-14T19:28:05.101Z,100.00
2023-11-14T19:38:09.923Z,100.00
2023-11-14T19:48:13.224Z,100.00
2023-11-14T19:58:17.872Z,100.00
2023-11-14T20:08:21.891Z,100.00
2023-11-14T20:18:27.513Z,100.00
2023-11-14T20:28:31.535Z,100.00
2023-11-14T20:38:36.023Z,100.00
2023-11-14T20:48:39.642Z,100.00
2023-11-14T20:58:44.713Z,100.00
2023-11-14T21:08:48.398Z,100.00
2023-11-14T21:18:53.896Z,100.00
2023-11-14T21:28:57.464Z,100.00
2023-11-14T21:39:02.908Z,100.00
2023-11-14T21:49:10.713Z,100.00
2023-11-14T21:59:15.242Z,100.00
2023-11-14T22:09:18.692Z,100.00
2023-11-14T22:19:23.900Z,100.00
2023-11-14T22:29:27.394Z,100.00
2023-11-14T22:39:32.569Z,100.00
2023-11-14T22:49:36.773Z,100.00
2023-11-14T22:59:41.755Z,100.00
2023-11-14T23:09:45.884Z,100.00
2023-11-14T23:19:50.510Z,100.00
2023-11-14T23:29:53.615Z,100.00
2023-11-14T23:39:58.426Z,100.00
2023-11-14T23:50:01.960Z,100.00
